Boyd, MN (56218)

10:32 AM CST on December 22, 2014 (GMT -0600)
Madison-Lac Qui Parle County | Change Station
CLOSE
Current Station
Airport
Location: Madison,
Elevation: 1083 ft
Nearby Weather Stations

Elev 1083 ft 44.98 °N, 96.18 °W | Updated 19 minutes ago

Rain
Rain
41 °F
Feels Like 34 °F
N
14
Wind Variable Wind from SE

Today
High -- | Low -- °F
--% Chance of Precip.
Yesterday
High -- | Low -- °F
Precip. -- in
7:58 AM 4:46 PM
New Moon, 1% visible
Pressure 29.48 in
Visibility 4.0 miles
Clouds Clear
Windchill 34 °F
Dew Point 39 °F
Humidity 93%
Rainfall 0.05 in
Snow Depth Not available.
UV 1 out of 12
Pollen .10 out of 12
Air Quality Not available.
Flu Activity Not available.
METAR KDXX 221613Z AUTO 14012KT 4SM RA CLR 05/04 A2948 RMK AO2

More Conditions Fewer Conditions

Pressure 29.48 in
Visibility 4.0 miles
Clouds Clear
Windchill 34 °F
Dew Point 39 °F
Humidity 93%
Rainfall 0.05 in
Snow Depth Not available.
UV 1 out of 12
Pollen .10 out of 12
Air Quality Not available.
Flu Activity Not available.
METAR KDXX 221613Z AUTO 14012KT 4SM RA CLR 05/04 A2948 RMK AO2

More Conditions Fewer Conditions

10-Day Weather Forecast

Almanac

Astronomy

Dec. 22, 2014 Rise Set
Actual Time
Civil Twilight
Nautical Twilight
Astronomical Twilight
Moon
Length of Visible Light
Length of Day
Tomorrow will be .
, % of the Moon is Illuminated

Today's Extremes

State Highs State Lows

Community

WunderPhotos

Upload Photos

1,779,636 photos uploaded!

WunderBlogs® & News

Nearby

Air Quality

  Air Quality AQ Index Pollutant
Not available.

Snow Depth

Station Depth Elevation

Earthquake Activity

City Distance Mag. Time & Date
Minimum magnitude displayed is 2.5.

Coastal Water Temperatures

Place Temperature

Nearby Weather Stations